Bloomingburg, New York
Current Conditions -  °F | °C
As of 11:54 AM on Sunday 23 Nov 2014 (Local Time) from KMGJ Reporting Station
Broken Clouds Broken Clouds  
Wind Chill: 53°   Ceiling: 6000
Heat Index: 53°   Visibility: 10mi
Dew Point: 23°   Wind: 7mph
Humidity: 31%   Direction: 200°SSW
Pressure: 30.13"   Gusts: NA
Location:  41.55°N, 74.44°W
Report Text: KMGJ 231654Z AUTO 20006KT 10SM BKN060 12/M05 A3013 RMK AO2 SLP204 T01171050 TSNO
Loading
Personal Weather Stations






























Interactive Weather Map New forecast layout! Learn more

10-Day Weather Forecast

Advertisements
Track Severe Weather on mobile